Arch Rock, Pennsylvania
Current Conditions -  °F | °C
As of 1:53 AM on Saturday 20 Dec 2014 (Local Time) from KSEG Reporting Station
Overcast Overcast  
Wind Chill: -6°   Ceiling: 3100
Heat Index: -1°   Visibility: 10mi
Dew Point: -7°   Wind: 12mph
Humidity: 64%   Direction: 360°N
Pressure: 30.21"   Gusts: NA
Location:  40.5853°N, 77.3611°W
Report Text: KSEG 200653Z AUTO 36010KT 10SM OVC031 M01/M07 A3021 RMK AO2 SLP235 T10061067
Loading
Personal Weather Stations






























Interactive Weather Map New forecast layout! Learn more

10-Day Weather Forecast

Advertisements
Track Severe Weather on mobile